createdAt,value
2023-04-20T00:03:54.012Z,77.78
2023-04-20T00:09:00.142Z,77.36
2023-04-20T00:14:06.102Z,77.17
2023-04-20T00:19:12.227Z,77.59
2023-04-20T00:24:18.017Z,76.97
2023-04-20T00:29:23.745Z,77.25
2023-04-20T00:34:29.325Z,76.82
2023-04-20T00:39:34.845Z,76.88
2023-04-20T00:44:41.523Z,76.65
2023-04-20T00:49:47.426Z,76.68
2023-04-20T00:54:53.196Z,76.74
2023-04-20T00:59:58.981Z,76.40
2023-04-20T01:05:04.998Z,76.80
2023-04-20T01:10:11.979Z,76.40
2023-04-20T01:15:17.862Z,76.54
2023-04-20T01:20:25.043Z,76.71
2023-04-20T01:25:31.650Z,76.70
2023-04-20T01:30:39.050Z,76.56
2023-04-20T01:35:44.612Z,76.28
2023-04-20T01:40:50.957Z,76.58
2023-04-20T01:45:56.536Z,76.20
2023-04-20T01:51:02.097Z,76.34
2023-04-20T01:56:08.836Z,75.94
2023-04-20T02:01:14.613Z,76.12
2023-04-20T02:06:20.140Z,76.34
2023-04-20T02:11:26.424Z,75.92
2023-04-20T02:16:32.101Z,76.11
2023-04-20T02:21:38.003Z,75.96
2023-04-20T02:26:43.618Z,76.14
2023-04-20T02:31:49.191Z,76.08
2023-04-20T02:36:54.692Z,76.19
2023-04-20T02:42:00.482Z,76.31
2023-04-20T02:47:06.844Z,76.64
2023-04-20T02:52:12.755Z,75.85
2023-04-20T02:57:18.316Z,76.05
2023-04-20T03:02:25.196Z,76.48
2023-04-20T03:07:33.218Z,76.19
2023-04-20T03:12:39.525Z,76.18
2023-04-20T03:18:04.075Z,76.35
2023-04-20T03:23:11.185Z,76.41
2023-04-20T03:28:17.346Z,75.63
2023-04-20T03:33:23.469Z,76.33
2023-04-20T03:38:29.270Z,76.47
2023-04-20T03:43:35.145Z,76.38
2023-04-20T03:48:41.159Z,76.38
2023-04-20T03:53:46.748Z,76.35
2023-04-20T03:58:53.407Z,76.33
2023-04-20T04:04:00.884Z,76.10
2023-04-20T04:09:06.854Z,76.21
2023-04-20T04:14:12.374Z,76.09
2023-04-20T04:19:19.356Z,76.07
2023-04-20T04:24:26.908Z,76.40
2023-04-20T04:29:35.778Z,76.19
2023-04-20T04:34:47.979Z,76.15
2023-04-20T04:39:53.865Z,76.28
2023-04-20T04:45:02.341Z,76.56
2023-04-20T04:50:10.972Z,76.19
2023-04-20T04:55:17.636Z,76.52
2023-04-20T05:00:23.629Z,76.69
2023-04-20T05:05:29.158Z,76.34
2023-04-20T05:10:34.658Z,76.36
2023-04-20T05:15:41.267Z,76.01
2023-04-20T05:20:47.336Z,75.92
2023-04-20T05:25:52.840Z,76.49
2023-04-20T05:30:58.975Z,76.61
2023-04-20T05:36:04.686Z,76.89
2023-04-20T05:41:10.449Z,76.99
2023-04-20T05:46:16.055Z,77.14
2023-04-20T05:51:22.608Z,76.97
2023-04-20T05:56:28.470Z,76.58
2023-04-20T06:01:34.037Z,76.33
2023-04-20T06:06:39.542Z,76.69
2023-04-20T06:11:45.055Z,76.61
2023-04-20T06:16:50.537Z,76.54
2023-04-20T06:21:56.292Z,75.98
2023-04-20T06:27:02.298Z,76.93
2023-04-20T06:32:07.745Z,77.42
2023-04-20T06:37:13.253Z,76.70
2023-04-20T06:42:18.832Z,76.24
2023-04-20T06:47:26.078Z,76.34
2023-04-20T06:52:32.067Z,75.54
2023-04-20T06:57:40.417Z,74.75
2023-04-20T07:02:48.639Z,75.23
2023-04-20T07:07:54.265Z,74.84
2023-04-20T07:12:59.718Z,75.10
2023-04-20T07:18:05.241Z,75.09
2023-04-20T07:23:10.783Z,75.63
2023-04-20T07:28:16.219Z,75.13
2023-04-20T07:33:21.735Z,75.64
2023-04-20T07:38:27.242Z,74.96
2023-04-20T07:43:32.749Z,74.49
2023-04-20T07:48:39.353Z,74.31
2023-04-20T07:53:49.696Z,73.75
2023-04-20T07:58:55.218Z,73.04
2023-04-20T08:04:02.063Z,72.58
2023-04-20T08:09:07.728Z,71.76
2023-04-20T08:14:16.778Z,71.49
2023-04-20T08:19:22.531Z,71.12
2023-04-20T08:24:28.109Z,69.61
2023-04-20T08:29:33.603Z,68.99
2023-04-20T08:34:46.474Z,67.84
2023-04-20T08:39:52.017Z,68.50
2023-04-20T08:44:59.188Z,67.87
2023-04-20T08:50:06.275Z,67.80
2023-04-20T08:55:13.865Z,67.39
2023-04-20T09:00:19.797Z,67.76
2023-04-20T09:05:32.214Z,68.24
2023-04-20T09:10:45.899Z,68.18
2023-04-20T09:15:51.401Z,66.05
2023-04-20T09:20:58.007Z,67.36
2023-04-20T09:26:03.612Z,67.10
2023-04-20T09:31:13.664Z,66.68
2023-04-20T09:36:21.144Z,64.99
2023-04-20T09:41:26.911Z,64.87
2023-04-20T09:46:34.398Z,64.75
2023-04-20T09:51:47.852Z,65.46
2023-04-20T09:56:54.826Z,63.95
2023-04-20T10:02:00.760Z,63.92
2023-04-20T10:07:07.733Z,62.57
2023-04-20T10:12:14.276Z,62.92
2023-04-20T10:17:23.172Z,62.88
2023-04-20T10:22:35.218Z,63.00
2023-04-20T10:27:43.884Z,61.23
2023-04-20T10:32:49.635Z,60.84
2023-04-20T10:37:55.513Z,60.70
2023-04-20T10:43:02.615Z,60.96
2023-04-20T10:48:12.005Z,59.91
2023-04-20T10:53:22.705Z,59.54
2023-04-20T10:58:30.022Z,60.27
2023-04-20T11:03:35.803Z,59.77
2023-04-20T11:08:43.253Z,59.11
2023-04-20T11:13:49.184Z,57.75
2023-04-20T11:18:56.513Z,56.73
2023-04-20T11:24:02.043Z,57.69
2023-04-20T11:29:07.629Z,58.08
2023-04-20T11:34:19.326Z,56.38
2023-04-20T11:39:27.223Z,55.66
2023-04-20T11:44:33.014Z,54.97
2023-04-20T11:49:39.467Z,54.86
2023-04-20T11:54:44.906Z,53.49
2023-04-20T11:59:50.450Z,54.62
2023-04-20T12:04:56.061Z,53.11
2023-04-20T12:10:01.596Z,51.92
2023-04-20T12:15:08.211Z,51.04
2023-04-20T12:20:14.480Z,50.75
2023-04-20T12:25:20.118Z,49.04
2023-04-20T12:30:25.770Z,48.63
2023-04-20T12:35:31.553Z,47.24
2023-04-20T12:40:37.370Z,46.31
2023-04-20T12:45:42.877Z,46.13
2023-04-20T12:50:48.392Z,45.34
2023-04-20T12:56:00.778Z,45.29
2023-04-20T13:01:01.046Z,45.33
2023-04-20T13:06:07.150Z,44.92
2023-04-20T13:11:14.619Z,44.38
2023-04-20T13:16:21.252Z,44.42
2023-04-20T13:21:26.889Z,44.41
2023-04-20T13:26:32.553Z,44.73
2023-04-20T13:31:38.162Z,44.23
2023-04-20T13:36:44.057Z,43.71
2023-04-20T13:41:50.237Z,43.40
2023-04-20T13:46:55.748Z,43.03
2023-04-20T13:52:01.688Z,42.88
2023-04-20T13:57:07.288Z,42.32
2023-04-20T14:02:12.854Z,42.59
2023-04-20T14:07:18.407Z,42.83
2023-04-20T14:12:24.201Z,42.38
2023-04-20T14:17:29.749Z,41.98
2023-04-20T14:22:37.292Z,42.66
2023-04-20T14:27:42.814Z,42.30
2023-04-20T14:33:01.650Z,42.26
2023-04-20T14:38:07.267Z,41.82
2023-04-20T14:43:12.777Z,42.14
2023-04-20T14:48:18.927Z,41.83
2023-04-20T14:53:24.670Z,41.66
2023-04-20T14:58:30.187Z,41.63
2023-04-20T15:03:36.025Z,40.82
2023-04-20T15:08:42.617Z,41.13
2023-04-20T15:13:49.596Z,41.15
2023-04-20T15:18:55.243Z,41.41
2023-04-20T15:24:00.767Z,41.11
2023-04-20T15:29:06.525Z,41.17
2023-04-20T15:34:13.796Z,40.69
2023-04-20T15:39:19.309Z,40.98
2023-04-20T15:44:25.768Z,40.28
2023-04-20T15:49:31.202Z,40.47
2023-04-20T15:54:37.960Z,40.07
2023-04-20T15:59:43.814Z,41.07
2023-04-20T16:04:49.467Z,41.53
2023-04-20T16:09:55.193Z,42.00
2023-04-20T16:15:03.760Z,42.33
2023-04-20T16:20:10.361Z,42.36
2023-04-20T16:25:17.448Z,41.13
2023-04-20T16:30:22.950Z,39.04
2023-04-20T16:35:28.622Z,37.10
2023-04-20T16:40:34.150Z,34.41
2023-04-20T16:45:39.723Z,34.65
2023-04-20T16:50:49.636Z,33.91
2023-04-20T16:55:55.060Z,33.93
2023-04-20T17:01:00.545Z,34.56
2023-04-20T17:06:08.250Z,34.74
2023-04-20T17:11:15.744Z,35.26
2023-04-20T17:16:21.337Z,35.65
2023-04-20T17:21:27.834Z,35.73
2023-04-20T17:26:33.375Z,36.40
2023-04-20T17:31:39.168Z,36.68
2023-04-20T17:36:44.699Z,37.17
2023-04-20T17:41:50.525Z,37.51
2023-04-20T17:46:56.193Z,37.78
2023-04-20T17:52:01.801Z,38.24
2023-04-20T17:57:08.947Z,38.60
2023-04-20T18:02:14.955Z,38.97
2023-04-20T18:07:20.845Z,39.36
2023-04-20T18:12:26.426Z,39.50
2023-04-20T18:17:32.600Z,40.06
2023-04-20T18:22:38.902Z,40.69
2023-04-20T18:27:44.431Z,41.07
2023-04-20T18:32:49.991Z,41.63
2023-04-20T18:43:56.954Z,42.70
2023-04-20T18:49:02.574Z,43.65
2023-04-20T18:54:08.333Z,44.20
2023-04-20T18:59:13.880Z,44.97
2023-04-20T19:04:19.834Z,45.64
2023-04-20T19:10:01.228Z,46.38
2023-04-20T19:15:09.082Z,46.91
2023-04-20T19:20:44.544Z,47.58
2023-04-20T19:26:02.977Z,48.27
2023-04-20T19:31:10.225Z,49.28
2023-04-20T19:36:16.066Z,49.89
2023-04-20T19:41:22.369Z,50.10
2023-04-20T19:46:28.285Z,50.40
2023-04-20T19:51:34.208Z,51.35
2023-04-20T19:56:40.274Z,51.21
2023-04-20T20:01:46.300Z,52.12
2023-04-20T20:06:51.998Z,52.59
2023-04-20T20:11:57.529Z,52.64
2023-04-20T20:17:03.311Z,53.59
2023-04-20T20:22:24.067Z,53.72
2023-04-20T20:27:32.281Z,53.94
2023-04-20T20:32:37.850Z,54.43
2023-04-20T20:37:45.434Z,54.82
2023-04-20T20:42:54.811Z,55.13
2023-04-20T20:48:00.675Z,55.35
2023-04-20T20:53:06.279Z,55.98
2023-04-20T20:58:17.552Z,56.19
2023-04-20T21:03:23.210Z,56.53
2023-04-20T21:08:28.998Z,57.05
2023-04-20T21:13:34.531Z,57.21
2023-04-20T21:18:40.137Z,57.34
2023-04-20T21:23:45.709Z,57.99
2023-04-20T21:28:51.336Z,58.06
2023-04-20T21:33:57.090Z,58.51
2023-04-20T21:39:04.090Z,59.07
2023-04-20T21:44:09.726Z,59.25
2023-04-20T21:49:15.471Z,59.41
2023-04-20T21:54:21.146Z,59.34
2023-04-20T21:59:26.678Z,59.13
2023-04-20T22:04:32.474Z,59.25
2023-04-20T22:09:38.546Z,59.34
2023-04-20T22:14:44.121Z,59.29
2023-04-20T22:19:49.718Z,59.40
2023-04-20T22:24:55.173Z,59.15
2023-04-20T22:30:00.988Z,59.10
2023-04-20T22:35:07.903Z,58.99
2023-04-20T22:40:14.358Z,59.12
2023-04-20T22:45:22.425Z,59.07
2023-04-20T22:50:28.312Z,58.99
2023-04-20T22:55:33.964Z,58.75
2023-04-20T23:00:39.612Z,58.39
2023-04-20T23:05:45.192Z,58.31
2023-04-20T23:10:50.990Z,58.05
2023-04-20T23:15:56.915Z,57.84
2023-04-20T23:21:02.619Z,57.65
2023-04-20T23:26:08.053Z,57.51
2023-04-20T23:31:14.623Z,57.37
2023-04-20T23:36:20.193Z,57.05
2023-04-20T23:41:26.041Z,56.95
2023-04-20T23:46:31.798Z,56.81
2023-04-20T23:51:39.188Z,56.82
2023-04-20T23:56:44.865Z,56.90
